Time;durP1;ratioP1;P1;durP2;ratioP2;P2;SDS_P1;SDS_P2;PMS_P1;PMS_P2;Temp;Humidity;BMP_temperature;BMP_pressure;BME280_temperature;BME280_humidity;BME280_pressure;Samples;Min_cycle;Max_cycle;Signal;HPM_P1;HPM_P2
2022/04/30 00:01:03;;;;;;;3.05;0.88;;;;;;;-0.94;45.94;99125.88;5072754;28;20070;-62
2022/04/30 00:03:30;;;;;;;0.55;0.55;;;;;;;-0.90;46.02;99140.72;5072572;28;20040;-62
2022/04/30 00:05:56;;;;;;;1.02;0.80;;;;;;;-0.92;46.08;99132.78;5072691;28;20064;-63
2022/04/30 00:08:23;;;;;;;1.25;1.20;;;;;;;-0.96;46.07;99122.47;5072698;28;20059;-61
2022/04/30 00:10:50;;;;;;;0.50;0.45;;;;;;;-0.97;46.07;99127.03;5072840;28;20412;-63
2022/04/30 00:13:16;;;;;;;4.20;0.77;;;;;;;-0.93;46.04;99138.34;5072976;28;20036;-62
2022/04/30 00:15:42;;;;;;;1.25;1.00;;;;;;;-0.87;46.15;99137.72;5072985;28;20048;-62
2022/04/30 00:18:09;;;;;;;0.50;0.50;;;;;;;-0.79;46.03;99134.28;5072821;28;20411;-62
2022/04/30 00:20:36;;;;;;;1.80;0.80;;;;;;;-0.74;45.87;99138.22;5072382;28;20128;-62
2022/04/30 00:23:03;;;;;;;0.55;0.55;;;;;;;-0.74;45.92;99137.34;5073033;28;20503;-62
2022/04/30 00:25:29;;;;;;;0.50;0.50;;;;;;;-0.72;45.90;99136.19;5072753;28;20418;-62
2022/04/30 00:27:54;;;;;;;0.40;0.40;;;;;;;-0.67;45.90;99140.28;5072572;28;20040;-62
2022/04/30 00:30:20;;;;;;;1.05;1.05;;;;;;;-0.62;45.80;99143.34;5071762;28;20125;-62
2022/04/30 00:32:48;;;;;;;1.20;0.40;;;;;;;-0.59;45.86;99140.34;5072454;28;20082;-62
2022/04/30 00:35:14;;;;;;;6.80;1.83;;;;;;;-0.58;45.88;99145.59;5072364;28;20518;-62
2022/04/30 00:37:41;;;;;;;2.22;0.88;;;;;;;-0.51;45.82;99145.00;5072513;28;20076;-63
2022/04/30 00:40:07;;;;;;;0.63;0.63;;;;;;;-0.40;45.73;99152.81;5072787;28;20438;-63
2022/04/30 00:42:33;;;;;;;0.52;0.52;;;;;;;-0.29;45.46;99149.03;5072682;28;20044;-63
2022/04/30 00:44:59;;;;;;;0.77;0.73;;;;;;;-0.18;45.37;99154.16;5072602;28;20102;-62
2022/04/30 00:47:26;;;;;;;0.35;0.35;;;;;;;-0.03;45.12;99149.03;5072102;28;20056;-62
2022/04/30 00:49:52;;;;;;;1.00;0.52;;;;;;;0.17;44.99;99149.69;5072170;28;20483;-62
2022/04/30 00:52:21;;;;;;;5.45;1.38;;;;;;;0.38;44.64;99157.38;5072426;28;20040;-62
2022/04/30 00:54:49;;;;;;;0.32;0.32;;;;;;;0.59;44.41;99148.91;5072378;28;20044;-65
2022/04/30 00:57:23;;;;;;;0.50;0.50;;;;;;;0.81;44.07;99152.00;5071883;28;20048;-62
2022/04/30 00:59:58;;;;;;;0.60;0.60;;;;;;;1.05;43.67;99149.38;5072036;28;20047;-63
2022/04/30 01:02:28;;;;;;;0.95;0.65;;;;;;;1.40;43.23;99149.28;5071998;28;20036;-63
2022/04/30 01:04:56;;;;;;;1.15;0.50;;;;;;;1.79;42.76;99136.94;5071488;28;20051;-63
2022/04/30 01:07:22;;;;;;;0.22;0.22;;;;;;;2.78;41.45;99141.06;5072023;28;20529;-63
2022/04/30 01:09:50;;;;;;;0.30;0.30;;;;;;;4.68;38.66;99137.63;5072133;28;20059;-64
2022/04/30 01:12:16;;;;;;;0.40;0.40;;;;;;;6.40;36.49;99132.41;5071897;28;20040;-64
2022/04/30 01:14:42;;;;;;;0.20;0.20;;;;;;;7.39;35.31;99130.34;5071850;28;20056;-64
2022/04/30 01:17:48;;;;;;;0.32;0.32;;;;;;;8.88;34.06;99122.72;5071336;28;20119;-62
2022/04/30 01:27:40;;;;;;;0.20;0.20;;;;;;;12.87;31.25;99128.53;5066455;28;20071;-61
2022/04/30 01:40:56;;;;;;;0.10;0.10;;;;;;;18.26;28.03;99114.59;5061127;28;20048;-64
2022/04/30 01:43:41;;;;;;;;;;;;;;;18.94;27.88;99111.44;5057801;28;20056;-61
2022/04/30 01:46:46;;;;;;;0.28;0.28;;;;;;;19.46;27.95;99111.22;5075234;28;20393;-63
2022/04/30 01:49:52;;;;;;;0.25;0.25;;;;;;;19.88;28.00;99115.47;5053628;28;20052;-64
2022/04/30 01:52:57;;;;;;;0.20;0.20;;;;;;;20.38;28.15;99116.19;5058804;28;20044;-62
2022/04/30 01:56:03;;;;;;;0.10;0.10;;;;;;;21.12;27.53;99117.97;5060970;28;20063;-63
2022/04/30 01:59:08;;;;;;;0.70;0.57;;;;;;;21.93;27.01;99118.03;5074479;28;20071;-66
2022/04/30 02:02:14;;;;;;;0.20;0.20;;;;;;;22.70;26.65;99130.78;5074054;28;20044;-63
2022/04/30 02:08:46;;;;;;;0.20;0.20;;;;;;;24.58;25.52;99116.06;5063050;28;20048;-62
2022/04/30 02:11:51;;;;;;;0.10;0.10;;;;;;;24.78;25.58;99109.13;5062404;28;20041;-62
2022/04/30 02:14:57;;;;;;;0.10;0.10;;;;;;;25.13;25.85;99115.72;5064086;28;20487;-63
2022/04/30 02:21:26;;;;;;;0.25;0.20;;;;;;;26.05;25.48;99120.59;5064424;28;20043;-65
2022/04/30 02:31:16;;;;;;;0.10;0.10;;;;;;;25.98;26.68;99125.03;5062760;28;20051;-64
2022/04/30 02:34:22;;;;;;;0.20;0.20;;;;;;;26.15;26.46;99119.44;5059050;28;20036;-65
2022/04/30 02:36:48;;;;;;;0.22;0.22;;;;;;;26.92;25.74;99122.47;5074402;28;20059;-63
2022/04/30 02:39:14;;;;;;;0.30;0.30;;;;;;;27.52;25.20;99139.47;5052924;28;20076;-64
2022/04/30 02:41:40;;;;;;;0.20;0.20;;;;;;;27.99;24.48;99132.06;5074096;28;20522;-63
2022/04/30 02:44:05;;;;;;;0.20;0.20;;;;;;;28.36;24.32;99120.94;5073966;28;20090;-64
2022/04/30 02:46:31;;;;;;;0.80;0.52;;;;;;;28.82;24.47;99117.00;5073807;28;20043;-64
2022/04/30 02:48:57;;;;;;;1.45;0.65;;;;;;;29.38;23.81;99115.69;5072930;28;20040;-64
2022/04/30 02:51:23;;;;;;;4.15;1.20;;;;;;;29.83;23.47;99117.56;5072494;28;20119;-62
2022/04/30 02:53:49;;;;;;;0.35;0.35;;;;;;;30.09;23.26;99121.16;5072962;28;20485;-63
2022/04/30 02:56:14;;;;;;;0.15;0.15;;;;;;;29.99;23.22;99122.47;5071943;28;20094;-62
2022/04/30 03:01:24;;;;;;;0.28;0.28;;;;;;;29.35;24.10;99134.19;5072971;28;20132;-65
2022/04/30 03:03:50;;;;;;;0.28;0.28;;;;;;;29.17;24.09;99130.72;5073293;28;20127;-64
2022/04/30 03:06:17;;;;;;;0.32;0.30;;;;;;;29.18;24.01;99126.75;5073553;28;20048;-62
2022/04/30 03:08:49;;;;;;;0.20;0.20;;;;;;;29.62;23.53;99120.53;5072696;28;20124;-63
2022/04/30 03:11:19;;;;;;;1.42;0.20;;;;;;;29.80;23.37;99134.38;5066646;28;20041;-63
2022/04/30 03:13:45;;;;;;;0.10;0.10;;;;;;;29.67;23.34;99128.75;5053385;28;20055;-65
2022/04/30 03:21:46;;;;;;;0.73;0.30;;;;;;;29.94;23.28;99137.69;5073183;28;20124;-60
2022/04/30 03:24:15;;;;;;;0.10;0.10;;;;;;;28.44;24.57;99120.06;5055801;28;20044;-67
2022/04/30 03:27:00;;;;;;;1.17;0.30;;;;;;;28.04;24.81;99129.03;5070907;28;20033;-65
2022/04/30 03:29:25;;;;;;;0.20;0.20;;;;;;;28.32;24.37;99132.94;5059919;28;20049;-68
2022/04/30 03:31:51;;;;;;;2.30;0.20;;;;;;;28.25;24.44;99134.66;5063684;28;20049;-66
2022/04/30 03:34:17;;;;;;;0.10;0.10;;;;;;;28.76;23.50;99129.72;5066443;28;20064;-68
2022/04/30 03:36:44;;;;;;;0.10;0.10;;;;;;;28.96;23.18;99128.00;5073570;28;20463;-67
2022/04/30 03:39:10;;;;;;;0.10;0.10;;;;;;;29.54;22.86;99132.78;5073201;28;20044;-67
2022/04/30 03:41:36;;;;;;;0.10;0.10;;;;;;;29.66;22.58;99149.72;5073687;28;20074;-67
2022/04/30 03:44:03;;;;;;;0.47;0.20;;;;;;;29.15;22.69;99135.94;5073433;28;20045;-66
2022/04/30 03:46:29;;;;;;;0.10;0.10;;;;;;;28.65;23.26;99128.50;5055250;28;20037;-66
2022/04/30 03:48:56;;;;;;;0.20;0.20;;;;;;;28.36;23.33;99137.88;5073005;28;20029;-69
2022/04/30 03:51:23;;;;;;;0.25;0.10;;;;;;;27.72;23.71;99132.19;5073587;28;20051;-68
2022/04/30 03:53:49;;;;;;;0.13;0.13;;;;;;;28.22;23.24;99141.00;5073274;28;20406;-67
2022/04/30 03:56:17;;;;;;;0.10;0.10;;;;;;;28.64;22.79;99141.81;5073157;28;20036;-66
2022/04/30 03:58:44;;;;;;;0.10;0.10;;;;;;;28.24;23.24;99139.50;5072568;28;20052;-64
2022/04/30 04:01:11;;;;;;;0.10;0.10;;;;;;;28.14;23.23;99131.44;5072998;28;20052;-65
2022/04/30 04:03:37;;;;;;;0.30;0.30;;;;;;;28.20;23.17;99143.38;5071412;28;20051;-65
2022/04/30 04:06:03;;;;;;;0.10;0.10;;;;;;;28.73;22.66;99140.91;5072880;28;20407;-66
2022/04/30 04:08:28;;;;;;;0.30;0.30;;;;;;;29.67;21.67;99140.06;5072933;28;20045;-71
2022/04/30 04:10:55;;;;;;;0.10;0.10;;;;;;;30.74;20.99;99129.50;5073131;28;20048;-69
2022/04/30 04:18:51;;;;;;;0.10;0.10;;;;;;;31.35;20.56;99142.50;5072534;28;20051;-66
2022/04/30 04:21:22;;;;;;;0.13;0.13;;;;;;;30.48;21.09;99135.69;5072558;28;20383;-65
2022/04/30 04:26:33;;;;;;;0.10;0.10;;;;;;;30.63;20.91;99140.56;5072429;28;20051;-66
2022/04/30 04:28:58;;;;;;;0.10;0.10;;;;;;;31.13;20.51;99138.28;5072573;28;20033;-66
2022/04/30 04:31:24;;;;;;;0.00;0.00;;;;;;;30.37;21.28;99138.16;5072482;28;20063;-65
2022/04/30 04:33:51;;;;;;;0.28;0.28;;;;;;;29.85;21.44;99132.16;5072019;28;20036;-65
2022/04/30 04:36:17;;;;;;;0.28;0.25;;;;;;;30.11;21.08;99144.25;5072172;28;20075;-65
2022/04/30 04:38:43;;;;;;;0.20;0.20;;;;;;;30.58;20.87;99138.00;5071839;28;20040;-65
2022/04/30 04:41:09;;;;;;;0.10;0.10;;;;;;;30.81;20.65;99140.25;5054439;28;20040;-65
2022/04/30 04:43:34;;;;;;;0.38;0.35;;;;;;;27.93;22.84;99149.19;5072172;28;20047;-66
2022/04/30 04:46:02;;;;;;;0.30;0.30;;;;;;;25.51;25.25;99134.03;5072370;28;20071;-65
2022/04/30 04:48:29;;;;;;;0.30;0.30;;;;;;;26.37;23.93;99134.50;5072203;28;20075;-67
2022/04/30 04:50:55;;;;;;;1.00;0.40;;;;;;;27.58;22.50;99143.75;5072223;28;20044;-67
2022/04/30 04:53:21;;;;;;;0.10;0.10;;;;;;;27.72;21.91;99131.38;5071934;28;20044;-68
2022/04/30 04:55:47;;;;;;;0.73;0.32;;;;;;;25.83;23.65;99138.41;5055469;28;20040;-62
2022/04/30 04:58:14;;;;;;;0.38;0.38;;;;;;;22.91;26.27;99134.03;5051994;28;20189;-63
2022/04/30 05:00:39;;;;;;;1.60;0.55;;;;;;;20.01;28.82;99139.06;5071369;28;20028;-65
2022/04/30 05:03:07;;;;;;;0.52;0.50;;;;;;;18.29;30.13;99144.59;5070386;28;20411;-64
2022/04/30 05:05:33;;;;;;;1.30;0.77;;;;;;;17.11;30.74;99140.38;5057784;28;20417;-62
2022/04/30 05:07:59;;;;;;;1.23;1.13;;;;;;;16.24;30.86;99139.78;5071186;28;20053;-62
2022/04/30 05:10:24;;;;;;;1.05;0.75;;;;;;;15.49;30.67;99140.38;5070044;28;20047;-63
2022/04/30 05:12:50;;;;;;;1.38;1.08;;;;;;;14.94;30.34;99133.03;5071331;28;20498;-62
2022/04/30 05:15:16;;;;;;;0.98;0.57;;;;;;;14.20;30.62;99134.94;5071238;28;20472;-62
2022/04/30 05:17:41;;;;;;;0.57;0.32;;;;;;;13.65;30.48;99130.97;5071519;28;20044;-61
2022/04/30 05:20:08;;;;;;;1.45;0.63;;;;;;;13.17;30.34;99134.94;5071351;28;20449;-65
2022/04/30 05:22:33;;;;;;;0.85;0.70;;;;;;;12.56;30.45;99138.88;5071353;28;20045;-63
2022/04/30 05:24:59;;;;;;;3.15;1.10;;;;;;;12.02;30.70;99135.34;5071380;28;20055;-64
2022/04/30 05:27:26;;;;;;;0.30;0.30;;;;;;;11.57;30.46;99137.47;5071671;28;20399;-65
2022/04/30 05:29:51;;;;;;;0.32;0.32;;;;;;;11.26;30.36;99133.00;5071318;28;20102;-63
2022/04/30 05:32:17;;;;;;;0.88;0.82;;;;;;;11.09;29.99;99132.81;5071656;28;20491;-63
2022/04/30 05:34:43;;;;;;;0.17;0.17;;;;;;;10.96;29.97;99135.72;5071135;28;20047;-64
2022/04/30 05:37:08;;;;;;;0.32;0.32;;;;;;;10.61;29.95;99128.06;5070971;28;20052;-62
2022/04/30 05:39:34;;;;;;;3.40;1.02;;;;;;;10.10;30.08;99128.09;5071660;28;20086;-63
2022/04/30 05:42:00;;;;;;;1.50;0.93;;;;;;;9.69;30.07;99137.69;5071111;28;20032;-62
2022/04/30 05:44:26;;;;;;;4.70;0.85;;;;;;;9.46;30.06;99136.34;5072028;28;20051;-66
2022/04/30 05:46:51;;;;;;;0.50;0.50;;;;;;;9.32;29.76;99126.53;5062836;28;20044;-62
2022/04/30 05:49:17;;;;;;;2.85;0.82;;;;;;;9.20;29.60;99123.66;5058731;28;20418;-60
2022/04/30 05:51:43;;;;;;;0.90;0.90;;;;;;;9.01;29.59;99127.28;5070647;28;20445;-62
2022/04/30 05:54:09;;;;;;;0.52;0.52;;;;;;;8.87;29.48;99123.78;5070796;28;20410;-61
2022/04/30 05:56:35;;;;;;;0.40;0.40;;;;;;;8.77;29.36;99108.66;5070372;28;20070;-62
2022/04/30 05:59:00;;;;;;;2.35;1.08;;;;;;;8.52;29.24;99118.59;5069864;28;20064;-61
2022/04/30 06:01:26;;;;;;;0.63;0.60;;;;;;;8.03;29.44;99121.56;5069961;28;20036;-61
2022/04/30 06:03:53;;;;;;;2.10;1.40;;;;;;;7.87;29.69;99103.69;5070068;28;20048;-63
2022/04/30 06:06:20;;;;;;;3.75;0.77;;;;;;;7.98;29.31;99110.44;5070401;28;20043;-63
2022/04/30 06:08:46;;;;;;;0.50;0.50;;;;;;;7.93;29.10;99107.50;5069897;28;20032;-62
2022/04/30 06:11:12;;;;;;;0.70;0.70;;;;;;;7.92;29.01;99105.81;5070343;28;20036;-62
2022/04/30 06:13:38;;;;;;;0.65;0.65;;;;;;;7.98;28.82;99101.38;5070699;28;20047;-61
2022/04/30 06:16:04;;;;;;;0.80;0.80;;;;;;;7.87;28.63;99097.41;5071911;28;20033;-63
2022/04/30 06:18:31;;;;;;;1.38;1.10;;;;;;;7.84;28.63;99098.66;5070194;28;20162;-63
2022/04/30 06:20:57;;;;;;;3.47;0.63;;;;;;;7.85;28.67;99091.31;5069370;28;20043;-64
2022/04/30 06:23:23;;;;;;;0.80;0.80;;;;;;;7.88;28.58;99104.56;5068752;28;20147;-69
2022/04/30 06:25:49;;;;;;;4.18;0.82;;;;;;;7.85;28.44;99099.50;5050380;28;20051;-64
2022/04/30 06:28:15;;;;;;;2.13;1.38;;;;;;;7.86;28.30;99095.72;5060640;28;20036;-67
2022/04/30 06:30:42;;;;;;;1.15;1.05;;;;;;;7.76;28.40;99100.75;5073901;28;20051;-66
2022/04/30 06:33:08;;;;;;;0.30;0.30;;;;;;;7.72;28.44;99111.28;5072898;28;20073;-62
2022/04/30 06:35:36;;;;;;;0.45;0.45;;;;;;;7.70;28.46;99105.19;5073787;28;20495;-65
2022/04/30 06:38:02;;;;;;;2.58;0.73;;;;;;;7.72;28.41;99103.91;5073746;28;20131;-64
2022/04/30 06:40:28;;;;;;;0.60;0.60;;;;;;;7.69;28.32;99100.75;5073791;28;20144;-66
2022/04/30 06:42:54;;;;;;;1.35;0.93;;;;;;;7.58;28.29;99083.06;5073239;28;20040;-64
2022/04/30 06:45:19;;;;;;;2.03;1.35;;;;;;;7.70;28.06;99100.56;5069116;28;20051;-64
2022/04/30 06:48:25;;;;;;;3.85;1.27;;;;;;;7.74;28.14;99086.47;5063736;28;20037;-65
2022/04/30 06:50:51;;;;;;;;;;;;;;;7.70;28.17;99099.72;5074908;28;20040;-64
2022/04/30 06:58:50;;;;;;;0.40;0.40;;;;;;;7.01;28.69;99097.03;5052197;28;20047;-65
2022/04/30 07:04:04;;;;;;;3.30;1.27;;;;;;;6.94;28.74;99087.97;5052923;28;20109;-63
2022/04/30 07:06:30;;;;;;;0.57;0.52;;;;;;;7.06;28.59;99084.66;5051525;28;20140;-68
2022/04/30 07:08:56;;;;;;;1.10;0.70;;;;;;;7.14;28.49;99073.53;5054233;28;20510;-62
2022/04/30 07:11:22;;;;;;;0.73;0.73;;;;;;;7.24;28.31;99082.19;5073205;28;20070;-64
2022/04/30 07:14:07;;;;;;;2.53;1.45;;;;;;;7.32;28.23;99078.44;5061347;28;20036;-63
2022/04/30 07:16:32;;;;;;;;;;;;;;;7.31;28.19;99076.75;5058669;28;20040;-65
2022/04/30 07:19:01;;;;;;;0.38;0.38;;;;;;;7.16;28.32;99077.75;5072775;28;19939;-65
2022/04/30 07:21:28;;;;;;;3.85;1.25;;;;;;;6.98;28.56;99061.97;5071479;28;20519;-63
2022/04/30 07:23:55;;;;;;;3.08;1.42;;;;;;;6.92;28.46;99062.78;5072780;28;20048;-63
2022/04/30 07:26:21;;;;;;;0.50;0.50;;;;;;;6.91;28.46;99063.81;5048423;28;20936;-64
2022/04/30 07:28:46;;;;;;;0.68;0.68;;;;;;;6.96;28.48;99068.66;5047759;28;20041;-63
2022/04/30 07:31:12;;;;;;;0.50;0.50;;;;;;;7.04;28.33;99063.03;5066764;28;20044;-63
2022/04/30 07:33:38;;;;;;;1.25;1.00;;;;;;;7.12;28.27;99062.81;5046296;28;20044;-63
2022/04/30 07:36:05;;;;;;;1.63;0.93;;;;;;;7.18;28.10;99055.69;5060584;28;20508;-62
2022/04/30 07:38:31;;;;;;;1.05;0.60;;;;;;;7.22;28.08;99053.41;5062437;28;20048;-63
2022/04/30 07:40:57;;;;;;;0.32;0.32;;;;;;;7.26;28.12;99055.53;5066044;28;20091;-66
2022/04/30 07:43:23;;;;;;;1.20;0.80;;;;;;;7.35;27.90;99051.53;5068072;28;20275;-63
2022/04/30 07:45:49;;;;;;;1.20;1.10;;;;;;;7.42;27.91;99056.16;5048076;28;20044;-64
2022/04/30 07:48:15;;;;;;;1.17;1.05;;;;;;;7.38;27.84;99055.75;5057262;28;20053;-63
2022/04/30 07:50:44;;;;;;;3.20;1.15;;;;;;;7.31;27.94;99043.97;5056955;28;20062;-62
2022/04/30 07:53:13;;;;;;;0.60;0.60;;;;;;;7.31;27.80;99042.06;5053512;28;20051;-63
2022/04/30 07:55:40;;;;;;;0.57;0.57;;;;;;;7.32;27.91;99037.47;5063319;28;20392;-66
2022/04/30 07:58:05;;;;;;;1.73;0.75;;;;;;;7.33;27.86;99033.66;5054970;28;20048;-65
2022/04/30 08:00:31;;;;;;;1.17;1.08;;;;;;;7.39;27.88;99023.78;5061432;28;20036;-65
2022/04/30 08:02:59;;;;;;;1.45;1.00;;;;;;;7.42;27.86;99045.22;5071598;28;20048;-65
2022/04/30 08:05:26;;;;;;;0.90;0.43;;;;;;;7.43;27.67;99038.72;5071084;28;20049;-64
2022/04/30 08:07:54;;;;;;;0.40;0.40;;;;;;;7.41;27.86;99036.19;5072116;28;20048;-64
2022/04/30 08:10:20;;;;;;;0.65;0.65;;;;;;;7.41;27.75;99035.38;5071840;28;20036;-64
2022/04/30 08:12:46;;;;;;;0.45;0.45;;;;;;;7.35;27.84;99026.94;5053956;28;20040;-66
2022/04/30 08:15:12;;;;;;;2.85;1.85;;;;;;;7.40;27.71;99018.13;5053484;28;20098;-63
2022/04/30 08:17:39;;;;;;;1.85;1.02;;;;;;;7.47;27.78;99020.88;5071095;28;20040;-64
2022/04/30 08:20:06;;;;;;;0.20;0.20;;;;;;;7.53;27.68;99017.28;5053572;28;20094;-66
2022/04/30 08:22:32;;;;;;;0.35;0.35;;;;;;;7.62;27.52;99018.75;5071696;28;20049;-65
2022/04/30 08:25:01;;;;;;;1.80;0.38;;;;;;;7.67;27.50;99005.31;5071599;28;20048;-66
2022/04/30 08:27:26;;;;;;;0.38;0.38;;;;;;;7.73;27.45;99014.56;5071307;28;20388;-67
2022/04/30 08:29:52;;;;;;;1.48;0.68;;;;;;;7.71;27.44;99012.03;5071448;28;20049;-65
2022/04/30 08:32:19;;;;;;;1.00;0.65;;;;;;;7.73;27.57;99009.09;5070877;28;20048;-66
2022/04/30 08:34:45;;;;;;;0.20;0.20;;;;;;;7.75;27.58;99003.41;5070900;28;20395;-66
2022/04/30 08:37:12;;;;;;;0.30;0.30;;;;;;;7.77;27.67;99001.31;5062303;28;20083;-68
2022/04/30 08:39:37;;;;;;;0.43;0.35;;;;;;;7.80;27.54;99014.53;5050100;28;20094;-67
2022/04/30 08:42:06;;;;;;;0.40;0.35;;;;;;;7.80;27.65;98995.41;5051360;28;20040;-67
2022/04/30 08:44:35;;;;;;;0.85;0.77;;;;;;;7.78;27.53;98997.53;5062878;28;20044;-63
2022/04/30 08:47:01;;;;;;;0.20;0.20;;;;;;;7.72;27.75;98997.31;5063993;28;20045;-68
2022/04/30 08:49:27;;;;;;;0.20;0.20;;;;;;;7.69;27.74;98991.44;5060307;28;20185;-66
2022/04/30 08:51:53;;;;;;;0.30;0.30;;;;;;;7.69;27.69;98988.69;5071295;28;20618;-68
2022/04/30 08:54:19;;;;;;;0.25;0.25;;;;;;;7.69;27.77;98977.78;5071279;28;20048;-69
2022/04/30 08:56:55;;;;;;;0.20;0.20;;;;;;;7.71;27.69;98975.66;5071418;28;20075;-65
2022/04/30 08:59:21;;;;;;;0.30;0.30;;;;;;;7.64;27.77;98972.94;5070860;28;20048;-67
2022/04/30 09:01:50;;;;;;;0.20;0.20;;;;;;;7.65;27.73;98971.03;5048025;28;20553;-65
2022/04/30 09:04:17;;;;;;;0.10;0.10;;;;;;;7.65;27.75;98968.31;5060914;28;20108;-63
2022/04/30 09:06:50;;;;;;;0.30;0.30;;;;;;;7.65;27.60;98958.22;5069686;28;20495;-63
2022/04/30 09:09:29;;;;;;;0.30;0.30;;;;;;;7.67;27.65;98955.25;5051910;28;20045;-64
2022/04/30 09:12:09;;;;;;;0.20;0.20;;;;;;;7.74;27.62;98947.91;5070778;28;20044;-63
2022/04/30 09:14:40;;;;;;;0.30;0.30;;;;;;;7.81;27.43;98940.53;5070173;28;20044;-63
2022/04/30 09:17:14;;;;;;;0.28;0.28;;;;;;;7.85;27.58;98946.41;5070306;28;20040;-63
2022/04/30 09:20:03;;;;;;;0.20;0.20;;;;;;;7.95;27.50;98944.06;5070182;28;20139;-66
2022/04/30 09:22:34;;;;;;;0.20;0.20;;;;;;;7.99;27.40;98942.56;5052957;28;20094;-66
2022/04/30 09:25:12;;;;;;;0.50;0.50;;;;;;;8.01;27.37;98935.00;5052578;28;20048;-65
2022/04/30 09:27:45;;;;;;;0.20;0.20;;;;;;;7.95;27.45;98919.47;5052348;28;20047;-64
2022/04/30 09:30:34;;;;;;;0.30;0.30;;;;;;;7.93;27.40;98918.00;5071210;28;20045;-62
2022/04/30 09:33:08;;;;;;;0.32;0.32;;;;;;;7.81;27.60;98909.63;5039761;28;20037;-62
2022/04/30 09:38:38;;;;;;;0.32;0.32;;;;;;;7.90;27.59;98913.78;5070874;28;20098;-62
2022/04/30 09:41:11;;;;;;;0.20;0.20;;;;;;;7.92;27.69;98913.56;5070703;28;20399;-64
2022/04/30 09:44:13;;;;;;;0.20;0.20;;;;;;;7.99;27.64;98914.41;5051913;28;20037;-61
2022/04/30 09:46:49;;;;;;;0.47;0.43;;;;;;;8.00;27.54;98894.22;5033640;28;20339;-64
2022/04/30 09:55:06;;;;;;;0.20;0.20;;;;;;;8.08;27.49;98891.22;5071136;28;20044;-62
2022/04/30 09:57:50;;;;;;;0.47;0.47;;;;;;;8.09;27.46;98875.66;5051734;28;20040;-63
2022/04/30 10:00:16;;;;;;;0.50;0.50;;;;;;;8.10;27.46;98880.06;5070601;28;20075;-62
2022/04/30 10:02:45;;;;;;;1.08;0.85;;;;;;;8.07;27.56;98876.72;5071739;28;20458;-63
2022/04/30 10:05:12;;;;;;;0.30;0.30;;;;;;;8.17;27.45;98873.53;5074605;28;20386;-61
2022/04/30 10:07:39;;;;;;;2.20;0.57;;;;;;;8.30;27.35;98861.66;5073756;28;20048;-62
2022/04/30 10:10:25;;;;;;;4.95;0.45;;;;;;;8.42;27.18;98854.44;5073581;28;20036;-62
2022/04/30 10:13:13;;;;;;;0.43;0.43;;;;;;;8.45;27.22;98853.22;5062400;28;20051;-63
2022/04/30 10:15:46;;;;;;;0.55;0.50;;;;;;;8.38;27.29;98849.63;5072919;28;20507;-63
2022/04/30 10:18:13;;;;;;;0.20;0.20;;;;;;;8.39;27.36;98846.69;5072988;28;20052;-63
2022/04/30 10:21:09;;;;;;;0.20;0.20;;;;;;;8.40;27.38;98839.28;5072667;28;20131;-62
2022/04/30 10:23:44;;;;;;;0.20;0.20;;;;;;;8.28;27.32;98830.13;5056009;28;20568;-64
2022/04/30 10:26:14;;;;;;;0.20;0.20;;;;;;;8.24;27.46;98836.03;5072721;28;20047;-63
2022/04/30 10:28:57;;;;;;;0.30;0.30;;;;;;;8.15;27.43;98833.75;5053522;28;20051;-64
2022/04/30 10:31:26;;;;;;;0.20;0.20;;;;;;;8.14;27.55;98848.50;5046380;28;20406;-62
2022/04/30 10:33:52;;;;;;;0.75;0.40;;;;;;;8.11;27.39;98838.81;5051492;28;20037;-64
2022/04/30 10:36:22;;;;;;;0.20;0.20;;;;;;;8.03;27.45;98842.66;5067935;28;20046;-60
2022/04/30 10:39:23;;;;;;;0.20;0.20;;;;;;;8.10;27.33;98833.56;5072911;28;20044;-62
2022/04/30 10:41:53;;;;;;;0.30;0.30;;;;;;;8.21;27.38;98824.69;5072049;28;20193;-64
2022/04/30 10:44:32;;;;;;;0.98;0.30;;;;;;;8.37;27.10;98823.31;5071144;28;20044;-66
2022/04/30 10:47:33;;;;;;;0.28;0.28;;;;;;;8.51;26.97;98818.63;5054547;28;20044;-62
2022/04/30 10:50:11;;;;;;;0.30;0.30;;;;;;;8.54;26.90;98818.22;5038067;28;20048;-65
2022/04/30 10:52:54;;;;;;;0.57;0.57;;;;;;;8.64;26.81;98809.47;5053120;28;20041;-63
2022/04/30 10:55:29;;;;;;;1.30;0.93;;;;;;;8.72;26.91;98818.25;5071419;28;20041;-62
2022/04/30 10:58:02;;;;;;;0.63;0.63;;;;;;;8.84;26.70;98810.16;5070517;28;20051;-62
2022/04/30 11:00:34;;;;;;;0.30;0.30;;;;;;;8.95;26.80;98803.09;5055018;28;20060;-63
2022/04/30 11:03:17;;;;;;;0.93;0.80;;;;;;;9.02;26.72;98801.16;5066772;28;20040;-64
2022/04/30 11:05:52;;;;;;;0.38;0.30;;;;;;;8.86;26.94;98801.72;5072802;28;20127;-63
2022/04/30 11:08:19;;;;;;;0.52;0.52;;;;;;;8.81;27.06;98790.63;5053794;28;20048;-64
2022/04/30 11:11:06;;;;;;;0.20;0.20;;;;;;;8.78;27.05;98791.91;5052539;28;20041;-62
2022/04/30 11:13:38;;;;;;;0.20;0.20;;;;;;;8.84;27.07;98790.16;5069696;28;20045;-62
2022/04/30 11:16:15;;;;;;;0.25;0.25;;;;;;;8.86;27.04;98782.56;5068802;28;20040;-66
2022/04/30 11:18:53;;;;;;;0.10;0.10;;;;;;;8.86;26.97;98786.16;5052832;28;20045;-64
2022/04/30 11:21:39;;;;;;;0.70;0.70;;;;;;;8.84;26.97;98773.75;5051186;28;20041;-65
2022/04/30 11:24:21;;;;;;;0.20;0.20;;;;;;;8.89;26.94;98766.53;5051017;28;20037;-64
2022/04/30 11:26:56;;;;;;;0.30;0.30;;;;;;;8.97;26.88;98781.00;5051429;28;20508;-65
2022/04/30 11:29:28;;;;;;;0.40;0.40;;;;;;;8.91;26.94;98771.78;5072095;28;20525;-64
2022/04/30 11:31:56;;;;;;;0.55;0.45;;;;;;;8.99;26.98;98771.47;5072009;28;20051;-63
2022/04/30 11:34:31;;;;;;;0.20;0.20;;;;;;;8.91;26.79;98750.69;5071331;28;20040;-63
2022/04/30 11:37:07;;;;;;;2.22;0.52;;;;;;;9.01;26.94;98754.81;5072188;28;20483;-62
2022/04/30 11:39:40;;;;;;;0.20;0.20;;;;;;;9.11;26.89;98766.94;5071952;28;20048;-61
2022/04/30 11:42:08;;;;;;;0.30;0.30;;;;;;;9.20;26.73;98758.41;5053098;28;20044;-64
2022/04/30 11:44:37;;;;;;;1.10;0.77;;;;;;;9.21;26.72;98751.88;5047345;28;20044;-63
2022/04/30 11:47:12;;;;;;;0.20;0.20;;;;;;;9.34;26.45;98754.47;5050580;28;20045;-63
2022/04/30 11:49:45;;;;;;;4.38;0.77;;;;;;;9.43;26.54;98749.53;5072323;28;20058;-64
2022/04/30 11:52:17;;;;;;;0.20;0.20;;;;;;;9.46;26.61;98747.16;5053453;28;20040;-64
2022/04/30 11:54:54;;;;;;;0.20;0.20;;;;;;;9.46;26.62;98744.41;5054174;28;20186;-63
2022/04/30 11:57:34;;;;;;;0.30;0.30;;;;;;;9.46;26.63;98755.38;5054557;28;20094;-66
2022/04/30 12:00:08;;;;;;;0.20;0.20;;;;;;;9.44;26.56;98741.06;5053249;28;20071;-64
2022/04/30 12:02:34;;;;;;;4.90;1.35;;;;;;;9.46;26.60;98741.66;5030151;28;20092;-63
2022/04/30 12:05:10;;;;;;;0.30;0.30;;;;;;;9.46;26.51;98733.44;5048242;28;20124;-63
2022/04/30 12:07:59;;;;;;;0.30;0.30;;;;;;;9.49;26.51;98728.59;5022858;28;20170;-62
2022/04/30 12:10:42;;;;;;;0.20;0.20;;;;;;;9.45;26.63;98726.31;5034252;28;20041;-62
2022/04/30 12:13:23;;;;;;;0.20;0.20;;;;;;;9.39;26.62;98723.63;5051367;28;20037;-63
2022/04/30 12:15:49;;;;;;;0.20;0.20;;;;;;;9.41;26.58;98730.56;5052558;28;20545;-61
2022/04/30 12:27:03;;;;;;;0.50;0.50;;;;;;;9.63;26.47;98708.16;5051896;28;20407;-62
2022/04/30 12:29:35;;;;;;;1.90;0.80;;;;;;;9.58;26.56;98708.00;5051487;28;20051;-62
2022/04/30 12:32:07;;;;;;;0.20;0.20;;;;;;;9.59;26.52;98707.78;5033304;28;20037;-61
2022/04/30 12:34:40;;;;;;;1.55;0.30;;;;;;;9.54;26.54;98707.66;5050774;28;20448;-62
2022/04/30 12:37:07;;;;;;;1.13;0.28;;;;;;;9.51;26.51;98704.50;5033001;28;20053;-61
2022/04/30 12:39:33;;;;;;;0.20;0.20;;;;;;;9.40;26.75;98701.47;5051513;28;20043;-61
2022/04/30 12:42:00;;;;;;;0.73;0.47;;;;;;;9.31;26.70;98700.13;5029714;28;20041;-61
2022/04/30 12:44:28;;;;;;;0.30;0.30;;;;;;;9.29;26.74;98703.09;5031504;28;20037;-62
2022/04/30 12:46:54;;;;;;;0.50;0.25;;;;;;;9.27;26.67;98696.16;5040173;28;20155;-61
2022/04/30 12:49:20;;;;;;;0.20;0.20;;;;;;;9.23;26.77;98689.47;5050654;28;20543;-61
2022/04/30 12:51:48;;;;;;;0.65;0.65;;;;;;;9.17;26.73;98685.75;5048126;28;20045;-62
2022/04/30 12:54:16;;;;;;;0.20;0.20;;;;;;;9.15;26.87;98687.88;5049647;28;20048;-63
2022/04/30 12:56:46;;;;;;;0.45;0.45;;;;;;;9.16;26.63;98677.75;5050593;28;20494;-61
2022/04/30 12:59:12;;;;;;;0.13;0.13;;;;;;;9.20;26.60;98684.44;5049846;28;20571;-63
2022/04/30 13:01:40;;;;;;;0.17;0.17;;;;;;;9.27;26.61;98679.72;5032509;28;20041;-63
2022/04/30 13:04:06;;;;;;;0.13;0.13;;;;;;;9.32;26.43;98671.66;5050149;28;20411;-66
2022/04/30 13:06:32;;;;;;;0.20;0.20;;;;;;;9.35;26.45;98673.94;5031388;28;20460;-61
2022/04/30 13:14:27;;;;;;;0.20;0.20;;;;;;;9.30;26.50;98662.81;5049842;28;20083;-61
2022/04/30 13:16:53;;;;;;;0.20;0.20;;;;;;;9.33;26.47;98659.63;5033129;28;20041;-64